createdAt,value
2023-02-19T00:03:17.364Z,8.10
2023-02-19T00:08:19.283Z,8.04
2023-02-19T00:13:20.851Z,8.08
2023-02-19T00:18:23.733Z,8.15
2023-02-19T00:23:25.407Z,8.13
2023-02-19T00:28:27.012Z,8.10
2023-02-19T00:33:29.554Z,8.12
2023-02-19T00:38:32.718Z,8.17
2023-02-19T00:43:34.368Z,8.26
2023-02-19T00:48:35.967Z,8.27
2023-02-19T00:53:37.838Z,8.29
2023-02-19T00:58:40.064Z,8.34
2023-02-19T01:03:42.100Z,8.28
2023-02-19T01:08:44.146Z,8.26
2023-02-19T01:13:45.836Z,8.20
2023-02-19T01:18:48.028Z,8.26
2023-02-19T01:23:50.887Z,8.28
2023-02-19T01:28:53.005Z,8.25
2023-02-19T01:33:58.423Z,8.28
2023-02-19T01:39:03.975Z,8.31
2023-02-19T01:44:12.253Z,8.30
2023-02-19T01:49:20.640Z,8.27
2023-02-19T01:54:27.161Z,8.28
2023-02-19T01:59:28.854Z,8.28
2023-02-19T02:04:32.067Z,8.25
2023-02-19T02:09:52.085Z,8.23
2023-02-19T02:14:53.692Z,8.23
2023-02-19T02:20:22.760Z,8.24
2023-02-19T02:25:41.165Z,8.27
2023-02-19T02:30:47.328Z,8.19
2023-02-19T02:35:58.044Z,8.25
2023-02-19T02:41:00.355Z,8.10
2023-02-19T02:46:02.311Z,8.14
2023-02-19T02:51:27.414Z,8.12
2023-02-19T02:56:41.268Z,8.20
2023-02-19T03:02:10.965Z,8.18
2023-02-19T03:07:12.841Z,8.13
2023-02-19T03:12:37.044Z,8.10
2023-02-19T03:18:04.193Z,8.18
2023-02-19T03:23:09.236Z,8.21
2023-02-19T03:28:13.912Z,8.19
2023-02-19T03:33:23.829Z,8.15
2023-02-19T03:38:37.691Z,8.20
2023-02-19T03:43:52.669Z,8.15
2023-02-19T03:49:01.429Z,8.18
2023-02-19T03:54:15.648Z,8.20
2023-02-19T03:59:27.602Z,8.15
2023-02-19T04:04:37.331Z,8.25
2023-02-19T04:09:48.329Z,8.30
2023-02-19T04:15:07.834Z,8.29
2023-02-19T04:20:12.209Z,8.34
2023-02-19T04:25:13.984Z,8.36
2023-02-19T04:30:16.566Z,8.35
2023-02-19T04:35:18.132Z,8.35
2023-02-19T04:40:19.842Z,8.39
2023-02-19T04:45:21.462Z,8.40
2023-02-19T04:50:23.313Z,8.33
2023-02-19T04:55:25.123Z,8.23
2023-02-19T05:00:26.820Z,8.35
2023-02-19T05:05:28.597Z,8.40
2023-02-19T05:10:30.256Z,8.31
2023-02-19T05:15:31.894Z,8.24
2023-02-19T05:20:33.581Z,8.06
2023-02-19T05:25:35.174Z,8.07
2023-02-19T05:30:36.776Z,8.10
2023-02-19T05:35:52.211Z,8.02
2023-02-19T05:40:53.812Z,8.04
2023-02-19T05:45:58.626Z,8.07
2023-02-19T05:51:08.457Z,8.10
2023-02-19T05:56:36.320Z,8.07
2023-02-19T06:01:38.398Z,8.14
2023-02-19T06:06:41.048Z,8.12
2023-02-19T06:11:43.642Z,8.15
2023-02-19T06:16:45.392Z,8.19
2023-02-19T06:21:50.254Z,8.10
2023-02-19T06:26:51.875Z,8.10
2023-02-19T06:31:53.562Z,8.14
2023-02-19T06:36:57.231Z,8.10
2023-02-19T06:41:59.519Z,8.05
2023-02-19T06:47:01.161Z,8.13
2023-02-19T06:52:03.720Z,8.16
2023-02-19T06:57:05.311Z,8.20
2023-02-19T07:02:07.324Z,8.17
2023-02-19T07:07:12.108Z,8.14
2023-02-19T07:12:13.840Z,8.02
2023-02-19T07:17:15.522Z,8.08
2023-02-19T07:22:17.129Z,8.09
2023-02-19T07:27:18.709Z,8.06
2023-02-19T07:32:20.330Z,7.98
2023-02-19T07:37:22.017Z,7.94
2023-02-19T07:42:23.625Z,7.94
2023-02-19T07:47:25.305Z,7.97
2023-02-19T07:52:27.399Z,8.03
2023-02-19T07:57:29.830Z,8.07
2023-02-19T08:02:49.832Z,7.99
2023-02-19T08:07:51.765Z,8.03
2023-02-19T08:13:18.603Z,8.01
2023-02-19T08:18:23.503Z,7.97
2023-02-19T08:23:26.526Z,7.95
2023-02-19T08:28:29.432Z,7.92
2023-02-19T08:33:31.105Z,8.00
2023-02-19T08:38:35.835Z,8.04
2023-02-19T08:43:37.774Z,8.05
2023-02-19T08:48:39.741Z,8.02
2023-02-19T08:53:41.670Z,8.18
2023-02-19T08:58:44.082Z,8.26
2023-02-19T09:03:46.058Z,8.23
2023-02-19T09:08:47.745Z,8.22
2023-02-19T09:13:49.373Z,8.25
2023-02-19T09:18:50.967Z,8.24
2023-02-19T09:23:52.717Z,8.25
2023-02-19T09:28:54.786Z,8.29
2023-02-19T09:33:56.518Z,8.33
2023-02-19T09:39:00.421Z,8.39
2023-02-19T09:44:04.178Z,8.44
2023-02-19T09:49:11.618Z,8.43
2023-02-19T09:54:28.661Z,8.51
2023-02-19T09:59:59.201Z,8.49
2023-02-19T10:05:01.851Z,8.55
2023-02-19T10:10:32.729Z,8.50
2023-02-19T10:15:56.138Z,8.56
2023-02-19T10:20:58.516Z,8.55
2023-02-19T10:26:00.700Z,8.47
2023-02-19T10:31:07.201Z,8.52
2023-02-19T10:36:41.373Z,8.50
2023-02-19T10:41:44.343Z,8.40
2023-02-19T10:46:49.787Z,8.41
2023-02-19T10:51:53.625Z,8.34
2023-02-19T10:56:55.401Z,8.33
2023-02-19T11:02:17.388Z,8.35
2023-02-19T11:07:19.422Z,8.31
2023-02-19T11:12:39.260Z,8.31
2023-02-19T11:17:41.030Z,8.29
2023-02-19T11:22:47.884Z,8.27
2023-02-19T11:28:10.233Z,8.18
2023-02-19T11:33:21.406Z,8.21
2023-02-19T11:38:25.686Z,8.31
2023-02-19T11:43:50.227Z,8.24
2023-02-19T11:48:56.391Z,8.19
2023-02-19T11:54:17.396Z,8.15
2023-02-19T11:59:44.146Z,8.13
2023-02-19T12:05:07.797Z,8.09
2023-02-19T12:10:51.278Z,8.09
2023-02-19T12:16:09.061Z,8.09
2023-02-19T12:21:26.711Z,8.14
2023-02-19T12:26:34.553Z,7.99
2023-02-19T12:31:48.077Z,7.98
2023-02-19T12:37:00.076Z,7.97
2023-02-19T12:42:23.342Z,7.94
2023-02-19T12:47:34.511Z,7.91
2023-02-19T12:52:42.174Z,8.01
2023-02-19T12:57:44.242Z,8.04
2023-02-19T13:02:59.487Z,8.18
2023-02-19T13:08:22.101Z,8.27
2023-02-19T13:13:31.856Z,8.30
2023-02-19T13:18:53.405Z,8.31
2023-02-19T13:23:58.264Z,8.20
2023-02-19T13:29:11.823Z,8.28
2023-02-19T13:34:33.134Z,8.29
2023-02-19T13:39:34.906Z,8.32
2023-02-19T13:44:40.976Z,8.34
2023-02-19T13:49:42.990Z,8.44
2023-02-19T13:54:44.972Z,8.51
2023-02-19T13:59:48.295Z,8.50
2023-02-19T14:05:00.228Z,8.48
2023-02-19T14:10:02.772Z,8.39
2023-02-19T14:15:43.978Z,8.39
2023-02-19T14:20:45.946Z,8.30
2023-02-19T14:25:52.781Z,8.32
2023-02-19T14:30:56.300Z,8.37
2023-02-19T14:36:01.752Z,8.19
2023-02-19T14:41:04.706Z,8.24
2023-02-19T14:46:42.101Z,8.09
2023-02-19T14:51:49.529Z,7.97
2023-02-19T14:56:53.257Z,8.06
2023-02-19T15:02:03.971Z,8.02
2023-02-19T15:07:13.699Z,8.09
2023-02-19T15:12:18.504Z,8.07
2023-02-19T15:17:35.594Z,7.96
2023-02-19T15:22:41.328Z,7.81
2023-02-19T15:27:43.791Z,7.78
2023-02-19T15:32:52.827Z,7.72
2023-02-19T15:37:55.408Z,7.52
2023-02-19T15:42:59.244Z,7.64
2023-02-19T15:48:09.680Z,7.74
2023-02-19T15:53:18.982Z,7.78
2023-02-19T15:58:25.211Z,7.71
2023-02-19T16:03:28.259Z,7.70
2023-02-19T16:08:34.759Z,7.69
2023-02-19T16:13:36.541Z,7.67
2023-02-19T16:18:38.257Z,7.53
2023-02-19T16:23:47.030Z,7.70
2023-02-19T16:28:53.292Z,7.70
2023-02-19T16:33:55.051Z,7.60
2023-02-19T16:39:13.050Z,7.40
2023-02-19T16:44:20.870Z,7.41
2023-02-19T16:49:23.885Z,7.46
2023-02-19T16:54:25.577Z,7.58
2023-02-19T16:59:27.336Z,7.57
2023-02-19T17:04:30.139Z,7.41
2023-02-19T17:09:31.906Z,7.35
2023-02-19T17:14:33.636Z,7.29
2023-02-19T17:19:35.330Z,7.33
2023-02-19T17:24:37.005Z,7.25
2023-02-19T17:29:39.867Z,7.24
2023-02-19T17:34:42.037Z,7.25
2023-02-19T17:39:43.810Z,7.24
2023-02-19T17:44:46.796Z,7.07
2023-02-19T17:49:48.402Z,7.03
2023-02-19T17:54:50.010Z,7.04
2023-02-19T17:59:51.795Z,6.96
2023-02-19T18:04:53.477Z,6.70
2023-02-19T18:09:55.133Z,6.65
2023-02-19T18:14:57.336Z,6.45
2023-02-19T18:19:59.097Z,6.34
2023-02-19T18:25:00.892Z,6.41
2023-02-19T18:30:02.839Z,6.31
2023-02-19T18:35:05.814Z,6.22
2023-02-19T18:40:08.248Z,6.31
2023-02-19T18:45:10.035Z,6.27
2023-02-19T18:50:12.524Z,6.15
2023-02-19T18:55:14.171Z,6.15
2023-02-19T19:00:22.926Z,6.20
2023-02-19T19:05:24.883Z,6.14
2023-02-19T19:10:27.086Z,6.16
2023-02-19T19:15:28.784Z,6.01
2023-02-19T19:20:30.504Z,6.04
2023-02-19T19:25:32.105Z,6.07
2023-02-19T19:30:33.964Z,5.93
2023-02-19T19:35:35.744Z,5.87
2023-02-19T19:40:37.598Z,5.89
2023-02-19T19:45:39.258Z,5.96
2023-02-19T19:50:41.224Z,5.84
2023-02-19T19:55:42.937Z,5.88
2023-02-19T20:00:44.827Z,5.81
2023-02-19T20:05:50.262Z,5.84
2023-02-19T20:10:51.937Z,5.83
2023-02-19T20:15:53.581Z,5.75
2023-02-19T20:20:55.402Z,5.72
2023-02-19T20:25:57.677Z,5.79
2023-02-19T20:30:59.418Z,5.78
2023-02-19T20:36:01.178Z,5.77
2023-02-19T20:41:03.459Z,5.70
2023-02-19T20:46:05.365Z,5.71
2023-02-19T20:51:06.968Z,5.63
2023-02-19T20:56:08.649Z,5.54
2023-02-19T21:01:11.734Z,5.54
2023-02-19T21:06:13.675Z,5.47
2023-02-19T21:11:15.605Z,5.51
2023-02-19T21:16:17.805Z,5.52
2023-02-19T21:21:21.371Z,5.51
2023-02-19T21:26:23.755Z,5.48
2023-02-19T21:31:34.942Z,5.47
2023-02-19T21:36:37.548Z,5.47
2023-02-19T21:41:39.188Z,5.45
2023-02-19T21:46:41.564Z,5.51
2023-02-19T21:51:45.148Z,5.54
2023-02-19T21:56:47.105Z,5.55
2023-02-19T22:01:50.578Z,5.56
2023-02-19T22:06:56.029Z,5.61
2023-02-19T22:11:57.743Z,5.64
2023-02-19T22:16:59.509Z,5.66
2023-02-19T22:22:01.163Z,5.66
2023-02-19T22:27:02.825Z,5.71
2023-02-19T22:32:04.740Z,5.77
2023-02-19T22:37:06.484Z,5.78
2023-02-19T22:42:08.226Z,5.79
2023-02-19T22:47:09.834Z,5.87
2023-02-19T22:52:12.601Z,5.97
2023-02-19T22:57:14.295Z,6.03
2023-02-19T23:02:16.375Z,6.08
2023-02-19T23:07:18.140Z,6.14
2023-02-19T23:12:19.821Z,6.22
2023-02-19T23:17:21.547Z,6.33
2023-02-19T23:22:23.145Z,6.38
2023-02-19T23:27:26.670Z,6.41
2023-02-19T23:32:28.389Z,6.44
2023-02-19T23:37:30.053Z,6.44
2023-02-19T23:42:31.928Z,6.47
2023-02-19T23:47:33.687Z,6.55
2023-02-19T23:52:35.348Z,6.60
2023-02-19T23:57:37.069Z,6.63
